createdAt,value
2023-05-07T00:02:18.992Z,19.80
2023-05-07T00:04:50.417Z,20.13
2023-05-07T00:07:21.243Z,20.53
2023-05-07T00:09:53.207Z,20.40
2023-05-07T00:12:24.596Z,20.39
2023-05-07T00:14:55.931Z,20.62
2023-05-07T00:17:27.329Z,20.83
2023-05-07T00:19:58.755Z,20.57
2023-05-07T00:22:30.987Z,20.55
2023-05-07T00:25:02.874Z,20.91
2023-05-07T00:27:36.812Z,20.75
2023-05-07T00:30:09.186Z,20.92
2023-05-07T00:32:41.225Z,20.77
2023-05-07T00:35:12.761Z,20.65
2023-05-07T00:37:44.045Z,20.93
2023-05-07T00:40:15.567Z,20.40
2023-05-07T00:42:49.395Z,20.47
2023-05-07T00:45:21.183Z,20.28
2023-05-07T00:47:52.387Z,20.21
2023-05-07T00:50:23.490Z,20.30
2023-05-07T00:52:55.143Z,20.27
2023-05-07T00:55:26.411Z,20.43
2023-05-07T00:57:57.681Z,20.50
2023-05-07T01:00:29.596Z,20.22
2023-05-07T01:03:00.438Z,20.34
2023-05-07T01:05:33.021Z,20.45
2023-05-07T01:08:05.924Z,20.57
2023-05-07T01:10:38.007Z,20.40
2023-05-07T01:13:09.654Z,20.44
2023-05-07T01:15:43.629Z,20.79
2023-05-07T01:18:15.115Z,20.60
2023-05-07T01:20:47.571Z,20.83
2023-05-07T01:23:19.201Z,20.90
2023-05-07T01:25:57.518Z,20.90
2023-05-07T01:28:30.995Z,20.94
2023-05-07T01:31:06.392Z,20.91
2023-05-07T01:33:39.957Z,21.06
2023-05-07T01:36:12.961Z,21.11
2023-05-07T01:38:45.050Z,20.81
2023-05-07T01:41:16.349Z,20.72
2023-05-07T01:43:48.091Z,20.54
2023-05-07T01:46:19.683Z,20.63
2023-05-07T01:48:51.780Z,20.53
2023-05-07T01:51:24.617Z,20.79
2023-05-07T01:53:56.516Z,20.48
2023-05-07T01:56:29.140Z,20.53
2023-05-07T01:59:00.788Z,20.10
2023-05-07T02:01:34.138Z,19.89
2023-05-07T02:04:07.465Z,19.72
2023-05-07T02:06:39.343Z,20.22
2023-05-07T02:09:12.809Z,20.81
2023-05-07T02:11:47.372Z,20.91
2023-05-07T02:14:22.676Z,21.14
2023-05-07T02:16:54.433Z,20.12
2023-05-07T02:19:26.409Z,19.47
2023-05-07T02:21:58.412Z,19.46
2023-05-07T02:24:33.811Z,19.48
2023-05-07T02:27:05.653Z,19.60
2023-05-07T02:29:37.286Z,19.79
2023-05-07T02:32:08.797Z,19.69
2023-05-07T02:34:40.802Z,19.80
2023-05-07T02:37:12.700Z,20.23
2023-05-07T02:39:43.550Z,20.28
2023-05-07T02:42:14.680Z,20.22
2023-05-07T02:44:45.984Z,20.34
2023-05-07T02:47:18.901Z,19.97
2023-05-07T02:49:50.844Z,20.30
2023-05-07T02:52:22.363Z,20.04
2023-05-07T02:54:53.148Z,20.03
2023-05-07T02:57:24.662Z,19.65
2023-05-07T02:59:56.648Z,19.77
2023-05-07T03:02:28.108Z,19.84
2023-05-07T03:04:59.538Z,19.76
2023-05-07T03:07:32.488Z,19.75
2023-05-07T03:10:04.365Z,19.48
2023-05-07T03:12:37.142Z,19.39
2023-05-07T03:15:09.197Z,19.37
2023-05-07T03:17:43.246Z,19.42
2023-05-07T03:20:15.998Z,19.52
2023-05-07T03:22:47.999Z,19.61
2023-05-07T03:25:18.997Z,19.74
2023-05-07T03:27:50.455Z,19.62
2023-05-07T03:30:24.879Z,19.70
2023-05-07T03:32:55.806Z,19.89
2023-05-07T03:35:27.189Z,19.93
2023-05-07T03:37:58.536Z,19.76
2023-05-07T03:40:32.713Z,19.87
2023-05-07T03:43:03.775Z,19.80
2023-05-07T03:45:37.112Z,19.74
2023-05-07T03:48:18.558Z,19.61
2023-05-07T03:50:50.813Z,19.54
2023-05-07T03:53:23.742Z,19.58
2023-05-07T03:55:55.316Z,19.56
2023-05-07T03:58:26.760Z,19.51
2023-05-07T04:01:02.235Z,19.49
2023-05-07T04:03:33.600Z,19.39
2023-05-07T04:06:05.624Z,19.41
2023-05-07T04:08:39.234Z,19.32
2023-05-07T04:11:12.015Z,19.28
2023-05-07T04:13:42.761Z,19.35
2023-05-07T04:16:14.118Z,19.17
2023-05-07T04:18:46.085Z,19.15
2023-05-07T04:21:23.217Z,19.11
2023-05-07T04:23:55.862Z,18.84
2023-05-07T04:26:27.680Z,18.58
2023-05-07T04:28:59.159Z,18.41
2023-05-07T04:31:35.328Z,18.33
2023-05-07T04:34:06.507Z,18.24
2023-05-07T04:36:37.748Z,18.27
2023-05-07T04:39:14.977Z,18.29
2023-05-07T04:41:48.528Z,18.23
2023-05-07T04:44:19.412Z,18.40
2023-05-07T04:46:52.711Z,18.29
2023-05-07T04:49:24.140Z,18.26
2023-05-07T04:51:58.126Z,18.29
2023-05-07T04:54:29.420Z,18.29
2023-05-07T04:57:00.688Z,18.22
2023-05-07T04:59:32.419Z,18.30
2023-05-07T05:02:04.365Z,18.30
2023-05-07T05:04:36.394Z,18.32
2023-05-07T05:07:08.646Z,18.29
2023-05-07T05:09:40.483Z,18.29
2023-05-07T05:12:12.586Z,18.23
2023-05-07T05:14:43.634Z,18.23
2023-05-07T05:17:15.423Z,18.20
2023-05-07T05:19:47.298Z,18.09
2023-05-07T05:22:19.575Z,18.05
2023-05-07T05:24:51.334Z,18.21
2023-05-07T05:27:22.850Z,18.21
2023-05-07T05:29:54.707Z,18.16
2023-05-07T05:32:26.567Z,18.06
2023-05-07T05:35:00.399Z,18.12
2023-05-07T05:37:34.094Z,18.15
2023-05-07T05:40:08.010Z,18.15
2023-05-07T05:42:39.584Z,18.16
2023-05-07T05:45:12.225Z,18.13
2023-05-07T05:47:44.710Z,18.19
2023-05-07T05:50:15.957Z,18.22
2023-05-07T05:52:47.365Z,18.18
2023-05-07T05:55:19.751Z,18.14
2023-05-07T05:57:54.136Z,18.14
2023-05-07T06:00:26.316Z,18.10
2023-05-07T06:03:05.747Z,18.19
2023-05-07T06:05:38.796Z,18.15
2023-05-07T06:08:09.601Z,18.16
2023-05-07T06:10:41.517Z,18.04
2023-05-07T06:13:12.827Z,18.11
2023-05-07T06:15:45.219Z,18.11
2023-05-07T06:18:17.874Z,18.15
2023-05-07T06:20:50.271Z,18.07
2023-05-07T06:23:28.989Z,18.00
2023-05-07T06:26:03.228Z,18.03
2023-05-07T06:28:39.871Z,17.94
2023-05-07T06:31:16.489Z,17.92
2023-05-07T06:33:55.082Z,17.86
2023-05-07T06:36:29.781Z,17.75
2023-05-07T06:39:02.857Z,17.82
2023-05-07T06:41:34.305Z,17.81
2023-05-07T06:44:11.224Z,17.78
2023-05-07T06:46:52.177Z,17.63
2023-05-07T06:49:24.242Z,17.67
2023-05-07T06:51:55.670Z,17.62
2023-05-07T06:54:27.514Z,17.54
2023-05-07T06:56:58.749Z,17.46
2023-05-07T06:59:31.962Z,17.46
2023-05-07T07:02:04.056Z,17.40
2023-05-07T07:04:35.871Z,17.39
2023-05-07T07:07:10.851Z,17.39
2023-05-07T07:09:43.501Z,17.36
2023-05-07T07:12:15.696Z,17.31
2023-05-07T07:14:47.510Z,17.26
2023-05-07T07:17:19.461Z,17.22
2023-05-07T07:19:50.939Z,17.22
2023-05-07T07:22:23.143Z,17.17
2023-05-07T07:24:54.887Z,17.09
2023-05-07T07:27:30.729Z,17.20
2023-05-07T07:30:02.092Z,17.23
2023-05-07T07:32:37.259Z,17.17
2023-05-07T07:35:09.867Z,17.17
2023-05-07T07:37:42.958Z,17.11
2023-05-07T07:40:15.764Z,17.04
2023-05-07T07:42:48.920Z,16.97
2023-05-07T07:45:23.467Z,17.07
2023-05-07T07:47:56.304Z,17.05
2023-05-07T07:50:40.488Z,17.00
2023-05-07T07:53:15.277Z,16.96
2023-05-07T07:55:46.633Z,16.96
2023-05-07T07:58:21.385Z,16.92
2023-05-07T08:00:53.596Z,16.91
2023-05-07T08:03:25.778Z,16.90
2023-05-07T08:06:01.591Z,16.93
2023-05-07T08:08:34.598Z,16.90
2023-05-07T08:11:05.552Z,16.80
2023-05-07T08:13:40.384Z,16.78
2023-05-07T08:16:11.919Z,16.89
2023-05-07T08:18:43.813Z,16.95
2023-05-07T08:21:14.924Z,16.98
2023-05-07T08:23:47.195Z,17.01
2023-05-07T08:26:19.620Z,16.99
2023-05-07T08:28:51.603Z,17.18
2023-05-07T08:31:23.118Z,17.15
2023-05-07T08:33:54.500Z,17.23
2023-05-07T08:36:25.711Z,17.26
2023-05-07T08:38:57.354Z,17.28
2023-05-07T08:41:28.635Z,17.31
2023-05-07T08:44:00.756Z,17.39
2023-05-07T08:46:35.324Z,17.38
2023-05-07T08:49:07.451Z,17.25
2023-05-07T08:51:39.660Z,17.33
2023-05-07T08:54:11.149Z,17.20
2023-05-07T08:56:42.672Z,17.31
2023-05-07T08:59:14.652Z,17.25
2023-05-07T09:01:49.104Z,17.32
2023-05-07T09:04:21.345Z,17.32
2023-05-07T09:06:54.105Z,17.32
2023-05-07T09:09:27.033Z,17.27
2023-05-07T09:12:03.134Z,17.10
2023-05-07T09:14:37.339Z,17.03
2023-05-07T09:17:09.292Z,16.93
2023-05-07T09:19:41.594Z,16.94
2023-05-07T09:22:13.227Z,16.92
2023-05-07T09:24:56.096Z,16.91
2023-05-07T09:27:33.916Z,16.79
2023-05-07T09:30:12.645Z,16.84
2023-05-07T09:32:44.429Z,16.85
2023-05-07T09:35:21.174Z,16.84
2023-05-07T09:38:04.217Z,16.86
2023-05-07T09:40:38.623Z,16.93
2023-05-07T09:43:16.393Z,16.96
2023-05-07T09:45:57.507Z,17.19
2023-05-07T09:48:33.208Z,17.52
2023-05-07T09:51:09.919Z,17.59
2023-05-07T09:53:41.676Z,17.69
2023-05-07T09:56:18.644Z,17.72
2023-05-07T09:58:50.477Z,17.74
2023-05-07T10:01:24.532Z,17.74
2023-05-07T10:03:56.594Z,17.80
2023-05-07T10:06:29.154Z,17.79
2023-05-07T10:09:00.198Z,17.81
2023-05-07T10:11:31.560Z,17.90
2023-05-07T10:14:05.155Z,17.87
2023-05-07T10:16:38.843Z,17.86
2023-05-07T10:19:15.553Z,17.82
2023-05-07T10:21:59.282Z,17.77
2023-05-07T10:24:39.346Z,17.86
2023-05-07T10:27:17.567Z,17.81
2023-05-07T10:30:18.173Z,17.84
2023-05-07T10:32:54.056Z,17.82
2023-05-07T10:35:35.859Z,17.84
2023-05-07T10:38:08.363Z,17.81
2023-05-07T10:40:41.767Z,17.76
2023-05-07T10:43:13.150Z,17.76
2023-05-07T10:46:17.569Z,17.71
2023-05-07T10:49:08.859Z,17.67
2023-05-07T10:51:48.334Z,17.69
2023-05-07T10:54:28.709Z,17.59
2023-05-07T10:57:47.478Z,17.67
2023-05-07T11:00:39.025Z,17.67
2023-05-07T11:03:17.454Z,17.70
2023-05-07T11:06:17.087Z,17.71
2023-05-07T11:08:56.108Z,17.72
2023-05-07T11:11:54.100Z,17.71
2023-05-07T11:14:48.221Z,17.64
2023-05-07T11:18:02.054Z,17.70
2023-05-07T11:20:55.080Z,17.73
2023-05-07T11:23:58.761Z,17.75
2023-05-07T11:26:55.212Z,17.73
2023-05-07T11:29:30.234Z,17.80
2023-05-07T11:32:09.198Z,17.77
2023-05-07T11:34:50.739Z,17.82
2023-05-07T11:37:23.013Z,17.82
2023-05-07T11:40:10.307Z,17.82
2023-05-07T11:42:45.328Z,17.82
2023-05-07T11:45:29.739Z,17.90
2023-05-07T11:48:01.004Z,17.88
2023-05-07T11:50:32.558Z,17.77
2023-05-07T11:53:03.703Z,17.75
2023-05-07T11:55:35.193Z,17.79
2023-05-07T11:58:07.845Z,17.76
2023-05-07T12:00:40.446Z,17.76
2023-05-07T12:03:11.714Z,17.78
2023-05-07T12:05:44.417Z,17.78
2023-05-07T12:08:19.963Z,17.74
2023-05-07T12:10:54.843Z,17.70
2023-05-07T12:13:28.600Z,17.60
2023-05-07T12:16:00.498Z,17.71
2023-05-07T12:18:30.981Z,17.72
2023-05-07T12:21:03.195Z,17.74
2023-05-07T12:23:34.665Z,17.66
2023-05-07T12:26:07.832Z,17.76
2023-05-07T12:28:41.639Z,17.76
2023-05-07T12:31:13.003Z,17.73
2023-05-07T12:33:46.394Z,17.70
2023-05-07T12:36:18.289Z,17.72
2023-05-07T12:38:48.816Z,17.73
2023-05-07T12:41:20.931Z,17.72
2023-05-07T12:43:51.301Z,17.71
2023-05-07T12:46:22.225Z,17.69
2023-05-07T12:48:53.642Z,17.70
2023-05-07T12:51:24.979Z,17.70
2023-05-07T12:53:59.809Z,17.65
2023-05-07T12:56:34.674Z,17.56
2023-05-07T12:59:06.437Z,17.59
2023-05-07T13:01:37.958Z,17.58
2023-05-07T13:04:08.706Z,17.62
2023-05-07T13:06:41.669Z,17.63
2023-05-07T13:09:12.946Z,17.56
2023-05-07T13:11:43.791Z,17.52
2023-05-07T13:14:15.711Z,17.61
2023-05-07T13:16:47.106Z,17.60
2023-05-07T13:19:18.858Z,17.54
2023-05-07T13:21:50.094Z,17.53
2023-05-07T13:24:21.041Z,17.58
2023-05-07T13:26:52.948Z,17.56
2023-05-07T13:29:27.983Z,17.58
2023-05-07T13:32:00.408Z,17.58
2023-05-07T13:34:32.462Z,17.53
2023-05-07T13:37:05.223Z,17.52
2023-05-07T13:39:36.877Z,17.46
2023-05-07T13:42:08.037Z,17.52
2023-05-07T13:44:39.489Z,17.51
2023-05-07T13:47:10.811Z,17.53
2023-05-07T13:49:42.360Z,17.52
2023-05-07T13:52:13.539Z,17.52
2023-05-07T13:54:44.869Z,17.52
2023-05-07T13:57:16.141Z,17.50
2023-05-07T13:59:48.735Z,17.50
2023-05-07T14:02:20.221Z,17.48
2023-05-07T14:04:51.832Z,17.50
2023-05-07T14:07:22.663Z,17.51
2023-05-07T14:09:53.808Z,17.52
2023-05-07T14:12:25.183Z,17.50
2023-05-07T14:14:56.819Z,17.52
2023-05-07T14:17:29.535Z,17.51
2023-05-07T14:20:01.312Z,17.55
2023-05-07T14:22:35.349Z,17.53
2023-05-07T14:25:07.464Z,17.55
2023-05-07T14:27:38.956Z,17.54
2023-05-07T14:30:10.866Z,17.49
2023-05-07T14:32:42.167Z,17.54
2023-05-07T14:35:15.480Z,17.56
2023-05-07T14:37:47.343Z,17.60
2023-05-07T14:40:21.187Z,17.62
2023-05-07T14:42:52.126Z,17.60
2023-05-07T14:45:24.597Z,17.63
2023-05-07T14:47:55.997Z,17.64
2023-05-07T14:50:27.253Z,17.67
2023-05-07T14:53:04.913Z,17.69
2023-05-07T14:55:37.618Z,17.72
2023-05-07T14:58:08.906Z,17.70
2023-05-07T15:00:40.638Z,17.72
2023-05-07T15:03:13.776Z,17.74
2023-05-07T15:05:48.692Z,17.71
2023-05-07T15:08:20.841Z,17.74
2023-05-07T15:10:52.311Z,17.76
2023-05-07T15:13:23.304Z,17.77
2023-05-07T15:15:54.947Z,17.76
2023-05-07T15:18:27.212Z,17.79
2023-05-07T15:21:00.483Z,17.78
2023-05-07T15:23:32.703Z,17.74
2023-05-07T15:26:06.649Z,17.80
2023-05-07T15:28:40.339Z,17.80
2023-05-07T15:31:16.466Z,17.72
2023-05-07T15:33:49.936Z,17.75
2023-05-07T15:36:23.998Z,17.84
2023-05-07T15:38:55.465Z,17.90
2023-05-07T15:41:27.675Z,17.87
2023-05-07T15:43:59.185Z,17.86
2023-05-07T15:46:30.225Z,17.90
2023-05-07T15:49:15.518Z,17.87
2023-05-07T15:52:03.855Z,17.91
2023-05-07T15:54:35.266Z,17.91
2023-05-07T15:57:11.443Z,17.91
2023-05-07T15:59:45.075Z,17.89
2023-05-07T16:02:16.870Z,17.91
2023-05-07T16:04:48.317Z,17.92
2023-05-07T16:07:21.409Z,17.88
2023-05-07T16:09:54.754Z,17.91
2023-05-07T16:12:25.907Z,17.92
2023-05-07T16:14:57.528Z,17.92
2023-05-07T16:17:28.682Z,17.87
2023-05-07T16:20:00.596Z,17.96
2023-05-07T16:22:36.005Z,17.95
2023-05-07T16:25:07.601Z,17.98
2023-05-07T16:27:38.984Z,17.84
2023-05-07T16:30:11.078Z,17.94
2023-05-07T16:32:42.133Z,17.96
2023-05-07T16:35:13.503Z,17.96
2023-05-07T16:37:45.565Z,17.95
2023-05-07T16:40:17.062Z,17.93
2023-05-07T16:42:48.660Z,17.91
2023-05-07T16:45:20.709Z,17.90
2023-05-07T16:47:52.315Z,17.91
2023-05-07T16:50:24.030Z,17.88
2023-05-07T16:52:55.253Z,17.83
2023-05-07T16:55:27.201Z,17.83
2023-05-07T16:57:58.897Z,17.80
2023-05-07T17:00:38.265Z,17.79
2023-05-07T17:03:21.529Z,17.78
2023-05-07T17:05:53.160Z,17.82
2023-05-07T17:08:28.912Z,17.84
2023-05-07T17:11:01.806Z,17.81
2023-05-07T17:13:33.146Z,17.87
2023-05-07T17:16:05.293Z,17.83
2023-05-07T17:18:36.870Z,17.78
2023-05-07T17:21:08.702Z,17.85
2023-05-07T17:23:39.332Z,17.89
2023-05-07T17:26:20.041Z,17.90
2023-05-07T17:28:51.114Z,17.92
2023-05-07T17:31:22.501Z,17.94
2023-05-07T17:33:54.114Z,17.97
2023-05-07T17:36:25.493Z,17.97
2023-05-07T17:38:57.679Z,17.97
2023-05-07T17:41:29.232Z,17.95
2023-05-07T17:44:00.665Z,17.81
2023-05-07T17:46:32.136Z,17.91
2023-05-07T17:49:03.584Z,17.83
2023-05-07T17:51:46.247Z,17.86
2023-05-07T17:54:22.906Z,17.79
2023-05-07T17:56:54.813Z,17.77
2023-05-07T17:59:26.622Z,17.71
2023-05-07T18:01:58.276Z,17.74
2023-05-07T18:04:30.073Z,17.74
2023-05-07T18:07:01.529Z,17.85
2023-05-07T18:09:33.239Z,17.81
2023-05-07T18:12:08.034Z,17.82
2023-05-07T18:14:39.611Z,17.86
2023-05-07T18:17:10.977Z,17.89
2023-05-07T18:19:42.424Z,17.80
2023-05-07T18:22:13.834Z,17.91
2023-05-07T18:24:45.226Z,17.92
2023-05-07T18:27:16.590Z,17.93
2023-05-07T18:29:48.032Z,18.00
2023-05-07T18:32:19.369Z,17.98
2023-05-07T18:34:51.108Z,17.96
2023-05-07T18:37:22.530Z,17.96
2023-05-07T18:39:55.665Z,17.89
2023-05-07T18:42:26.944Z,17.93
2023-05-07T18:44:57.998Z,17.76
2023-05-07T18:47:29.081Z,17.83
2023-05-07T18:50:01.978Z,17.81
2023-05-07T18:52:34.399Z,17.85
2023-05-07T18:55:06.749Z,17.83
2023-05-07T18:57:38.198Z,17.82
2023-05-07T19:00:10.814Z,17.82
2023-05-07T19:02:42.668Z,17.86
2023-05-07T19:05:14.736Z,17.94
2023-05-07T19:07:47.499Z,17.93
2023-05-07T19:10:20.500Z,17.90
2023-05-07T19:12:56.755Z,17.98
2023-05-07T19:15:28.032Z,17.99
2023-05-07T19:17:59.473Z,17.98
2023-05-07T19:20:32.457Z,18.01
2023-05-07T19:23:03.593Z,18.03
2023-05-07T19:25:35.358Z,18.04
2023-05-07T19:28:06.904Z,18.07
2023-05-07T19:30:40.345Z,18.10
2023-05-07T19:33:11.638Z,18.11
2023-05-07T19:35:42.988Z,18.17
2023-05-07T19:38:14.284Z,18.21
2023-05-07T19:40:46.481Z,18.31
2023-05-07T19:43:17.664Z,18.33
2023-05-07T19:45:49.675Z,18.39
2023-05-07T19:48:21.011Z,18.44
2023-05-07T19:50:52.865Z,18.44
2023-05-07T19:53:24.173Z,18.50
2023-05-07T19:56:16.319Z,18.55
2023-05-07T19:58:47.554Z,18.54
2023-05-07T20:01:19.099Z,18.60
2023-05-07T20:03:50.529Z,18.57
2023-05-07T20:06:21.461Z,18.57
2023-05-07T20:08:52.856Z,18.62
2023-05-07T20:11:24.327Z,18.68
2023-05-07T20:13:56.142Z,18.70
2023-05-07T20:16:27.606Z,18.70
2023-05-07T20:18:58.621Z,18.71
2023-05-07T20:21:29.988Z,18.70
2023-05-07T20:24:01.554Z,18.71
2023-05-07T20:26:33.253Z,18.76
2023-05-07T20:29:05.732Z,18.84
2023-05-07T20:31:42.233Z,18.85
2023-05-07T20:34:13.792Z,18.81
2023-05-07T20:36:46.413Z,18.93
2023-05-07T20:39:18.548Z,18.89
2023-05-07T20:41:50.506Z,18.95
2023-05-07T20:44:21.728Z,19.06
2023-05-07T20:46:53.059Z,19.12
2023-05-07T20:49:24.608Z,19.33
2023-05-07T20:51:56.234Z,19.93
2023-05-07T20:54:29.474Z,19.88
2023-05-07T20:57:01.635Z,19.94
2023-05-07T20:59:36.386Z,20.27
2023-05-07T21:02:07.545Z,19.90
2023-05-07T21:04:39.048Z,20.14
2023-05-07T21:07:09.762Z,20.17
2023-05-07T21:09:40.810Z,20.58
2023-05-07T21:12:12.079Z,20.12
2023-05-07T21:14:52.327Z,19.69
2023-05-07T21:17:23.628Z,19.90
2023-05-07T21:19:54.622Z,19.80
2023-05-07T21:22:26.915Z,20.59
2023-05-07T21:24:58.190Z,20.19
2023-05-07T21:27:32.286Z,19.76
2023-05-07T21:30:06.059Z,19.55
2023-05-07T21:32:37.050Z,19.62
2023-05-07T21:35:08.923Z,19.69
2023-05-07T21:37:39.635Z,19.58
2023-05-07T21:40:11.840Z,19.66
2023-05-07T21:42:43.621Z,20.00
2023-05-07T21:45:15.587Z,20.32
2023-05-07T21:47:47.331Z,20.84
2023-05-07T21:50:19.072Z,20.63
2023-05-07T21:52:50.765Z,20.75
2023-05-07T21:55:22.503Z,21.58
2023-05-07T21:58:04.169Z,21.27
2023-05-07T22:00:36.644Z,21.10
2023-05-07T22:03:07.798Z,20.81
2023-05-07T22:05:38.883Z,20.59
2023-05-07T22:08:09.953Z,20.34
2023-05-07T22:10:41.871Z,20.41
2023-05-07T22:13:13.768Z,20.95
2023-05-07T22:15:53.642Z,22.30
2023-05-07T22:18:28.960Z,20.92
2023-05-07T22:20:59.488Z,20.41
2023-05-07T22:23:30.647Z,21.08
2023-05-07T22:26:01.950Z,21.99
2023-05-07T22:28:33.056Z,21.87
2023-05-07T22:31:04.409Z,21.67
2023-05-07T22:33:36.577Z,21.33
2023-05-07T22:36:09.483Z,21.50
2023-05-07T22:38:40.628Z,20.93
2023-05-07T22:41:11.718Z,21.01
2023-05-07T22:43:43.669Z,21.00
2023-05-07T22:46:15.233Z,20.54
2023-05-07T22:48:46.529Z,19.75
2023-05-07T22:51:17.753Z,19.49
2023-05-07T22:53:49.083Z,19.32
2023-05-07T22:56:20.832Z,19.52
2023-05-07T22:58:52.085Z,19.54
2023-05-07T23:01:23.973Z,19.71
2023-05-07T23:03:54.482Z,20.20
2023-05-07T23:06:26.141Z,20.45
2023-05-07T23:08:57.909Z,20.64
2023-05-07T23:11:29.170Z,21.13
2023-05-07T23:14:00.836Z,21.91
2023-05-07T23:16:34.687Z,22.06
2023-05-07T23:19:06.638Z,22.13
2023-05-07T23:21:37.846Z,22.17
2023-05-07T23:24:09.454Z,22.71
2023-05-07T23:26:41.039Z,22.60
2023-05-07T23:29:12.676Z,22.73
2023-05-07T23:31:44.288Z,22.98
2023-05-07T23:34:15.677Z,22.37
2023-05-07T23:36:46.841Z,22.45
2023-05-07T23:39:17.901Z,21.37
2023-05-07T23:41:49.235Z,21.04
2023-05-07T23:44:21.025Z,21.06
2023-05-07T23:46:52.676Z,20.77
2023-05-07T23:49:23.670Z,21.04
2023-05-07T23:51:55.214Z,21.04
2023-05-07T23:54:26.493Z,21.37
2023-05-07T23:56:57.789Z,22.70
2023-05-07T23:59:30.335Z,21.93
